sensor_id;sensor_type;location;lat;lon;timestamp;P1;durP1;ratioP1;P2;durP2;ratioP2
71975;SDS011;68326;52.124;5.424;2024-01-25T00:02:17;13.40;;;1.25;;
71975;SDS011;68326;52.124;5.424;2024-01-25T00:04:44;12.13;;;1.45;;
71975;SDS011;68326;52.124;5.424;2024-01-25T00:07:10;9.93;;;1.25;;
71975;SDS011;68326;52.124;5.424;2024-01-25T00:09:37;13.27;;;1.20;;
71975;SDS011;68326;52.124;5.424;2024-01-25T00:12:04;14.38;;;1.20;;
71975;SDS011;68326;52.124;5.424;2024-01-25T00:14:31;10.90;;;0.98;;
71975;SDS011;68326;52.124;5.424;2024-01-25T00:16:57;16.08;;;1.25;;
71975;SDS011;68326;52.124;5.424;2024-01-25T00:19:24;18.00;;;1.27;;
71975;SDS011;68326;52.124;5.424;2024-01-25T00:21:50;15.70;;;1.20;;
71975;SDS011;68326;52.124;5.424;2024-01-25T00:24:17;12.80;;;1.40;;
71975;SDS011;68326;52.124;5.424;2024-01-25T00:26:43;15.05;;;1.42;;
71975;SDS011;68326;52.124;5.424;2024-01-25T00:29:10;18.48;;;1.90;;
71975;SDS011;68326;52.124;5.424;2024-01-25T00:31:36;15.73;;;1.50;;
71975;SDS011;68326;52.124;5.424;2024-01-25T00:34:03;9.90;;;1.30;;
71975;SDS011;68326;52.124;5.424;2024-01-25T00:36:30;19.50;;;2.08;;
71975;SDS011;68326;52.124;5.424;2024-01-25T00:38:57;13.38;;;1.25;;
71975;SDS011;68326;52.124;5.424;2024-01-25T00:41:24;11.25;;;0.82;;
71975;SDS011;68326;52.124;5.424;2024-01-25T00:43:51;13.85;;;1.10;;
71975;SDS011;68326;52.124;5.424;2024-01-25T00:46:18;17.57;;;1.73;;
71975;SDS011;68326;52.124;5.424;2024-01-25T00:48:45;15.38;;;1.38;;
71975;SDS011;68326;52.124;5.424;2024-01-25T00:51:14;13.95;;;1.48;;
71975;SDS011;68326;52.124;5.424;2024-01-25T00:53:44;15.65;;;1.13;;
71975;SDS011;68326;52.124;5.424;2024-01-25T00:56:11;13.32;;;1.58;;
71975;SDS011;68326;52.124;5.424;2024-01-25T00:58:38;15.70;;;1.60;;
71975;SDS011;68326;52.124;5.424;2024-01-25T01:01:04;12.15;;;1.10;;
71975;SDS011;68326;52.124;5.424;2024-01-25T01:03:32;11.70;;;0.90;;
71975;SDS011;68326;52.124;5.424;2024-01-25T01:05:58;18.65;;;1.70;;
71975;SDS011;68326;52.124;5.424;2024-01-25T01:08:26;16.95;;;1.63;;
71975;SDS011;68326;52.124;5.424;2024-01-25T01:10:53;17.10;;;1.17;;
71975;SDS011;68326;52.124;5.424;2024-01-25T01:13:19;12.18;;;1.33;;
71975;SDS011;68326;52.124;5.424;2024-01-25T01:15:45;11.55;;;1.67;;
71975;SDS011;68326;52.124;5.424;2024-01-25T01:18:12;16.40;;;1.88;;
71975;SDS011;68326;52.124;5.424;2024-01-25T01:20:39;13.02;;;1.40;;
71975;SDS011;68326;52.124;5.424;2024-01-25T01:23:05;12.13;;;1.13;;
71975;SDS011;68326;52.124;5.424;2024-01-25T01:25:32;14.77;;;1.88;;
71975;SDS011;68326;52.124;5.424;2024-01-25T01:27:58;16.38;;;2.03;;
71975;SDS011;68326;52.124;5.424;2024-01-25T01:30:25;14.70;;;1.40;;
71975;SDS011;68326;52.124;5.424;2024-01-25T01:32:51;10.95;;;1.55;;
71975;SDS011;68326;52.124;5.424;2024-01-25T01:35:18;15.20;;;1.60;;
71975;SDS011;68326;52.124;5.424;2024-01-25T01:37:45;17.05;;;1.70;;
71975;SDS011;68326;52.124;5.424;2024-01-25T01:40:12;14.95;;;1.42;;
71975;SDS011;68326;52.124;5.424;2024-01-25T01:42:38;17.08;;;1.50;;
71975;SDS011;68326;52.124;5.424;2024-01-25T01:45:05;15.43;;;1.70;;
71975;SDS011;68326;52.124;5.424;2024-01-25T01:47:32;14.30;;;1.30;;
71975;SDS011;68326;52.124;5.424;2024-01-25T01:49:59;17.40;;;1.95;;
71975;SDS011;68326;52.124;5.424;2024-01-25T01:52:26;11.32;;;1.33;;
71975;SDS011;68326;52.124;5.424;2024-01-25T01:54:54;18.38;;;1.60;;
71975;SDS011;68326;52.124;5.424;2024-01-25T01:57:20;11.43;;;1.48;;
71975;SDS011;68326;52.124;5.424;2024-01-25T01:59:47;13.53;;;1.60;;
71975;SDS011;68326;52.124;5.424;2024-01-25T02:02:15;14.68;;;1.50;;
71975;SDS011;68326;52.124;5.424;2024-01-25T02:04:43;17.73;;;1.55;;
71975;SDS011;68326;52.124;5.424;2024-01-25T02:07:10;9.90;;;1.10;;
71975;SDS011;68326;52.124;5.424;2024-01-25T02:09:37;13.80;;;1.38;;
71975;SDS011;68326;52.124;5.424;2024-01-25T02:12:04;12.23;;;1.70;;
71975;SDS011;68326;52.124;5.424;2024-01-25T02:14:31;13.80;;;1.38;;
71975;SDS011;68326;52.124;5.424;2024-01-25T02:16:58;16.42;;;1.92;;
71975;SDS011;68326;52.124;5.424;2024-01-25T02:19:25;11.07;;;1.08;;
71975;SDS011;68326;52.124;5.424;2024-01-25T02:21:51;15.15;;;1.20;;
71975;SDS011;68326;52.124;5.424;2024-01-25T02:24:20;13.20;;;1.30;;
71975;SDS011;68326;52.124;5.424;2024-01-25T02:26:47;17.17;;;2.17;;
71975;SDS011;68326;52.124;5.424;2024-01-25T02:29:14;12.23;;;1.92;;
71975;SDS011;68326;52.124;5.424;2024-01-25T02:31:41;19.73;;;1.45;;
71975;SDS011;68326;52.124;5.424;2024-01-25T02:34:07;19.52;;;1.70;;
71975;SDS011;68326;52.124;5.424;2024-01-25T02:36:34;10.17;;;1.17;;
71975;SDS011;68326;52.124;5.424;2024-01-25T02:39:01;24.67;;;2.35;;
71975;SDS011;68326;52.124;5.424;2024-01-25T02:41:30;13.85;;;1.35;;
71975;SDS011;68326;52.124;5.424;2024-01-25T02:43:57;18.85;;;1.45;;
71975;SDS011;68326;52.124;5.424;2024-01-25T02:46:24;14.80;;;1.58;;
71975;SDS011;68326;52.124;5.424;2024-01-25T02:48:51;11.40;;;1.20;;
71975;SDS011;68326;52.124;5.424;2024-01-25T02:51:17;13.07;;;2.03;;
71975;SDS011;68326;52.124;5.424;2024-01-25T02:53:44;11.80;;;1.13;;
71975;SDS011;68326;52.124;5.424;2024-01-25T02:56:10;13.90;;;0.90;;
71975;SDS011;68326;52.124;5.424;2024-01-25T02:58:37;7.97;;;1.48;;
71975;SDS011;68326;52.124;5.424;2024-01-25T03:01:03;11.30;;;1.10;;
71975;SDS011;68326;52.124;5.424;2024-01-25T03:03:30;11.32;;;1.05;;
71975;SDS011;68326;52.124;5.424;2024-01-25T03:05:56;13.88;;;1.70;;
71975;SDS011;68326;52.124;5.424;2024-01-25T03:08:23;11.45;;;1.17;;
71975;SDS011;68326;52.124;5.424;2024-01-25T03:10:50;10.85;;;1.00;;
71975;SDS011;68326;52.124;5.424;2024-01-25T03:13:16;10.37;;;0.93;;
71975;SDS011;68326;52.124;5.424;2024-01-25T03:15:43;13.93;;;1.10;;
71975;SDS011;68326;52.124;5.424;2024-01-25T03:18:10;10.02;;;1.10;;
71975;SDS011;68326;52.124;5.424;2024-01-25T03:20:37;8.52;;;0.85;;
71975;SDS011;68326;52.124;5.424;2024-01-25T03:23:04;10.93;;;1.23;;
71975;SDS011;68326;52.124;5.424;2024-01-25T03:25:30;14.57;;;1.20;;
71975;SDS011;68326;52.124;5.424;2024-01-25T03:27:57;13.70;;;1.60;;
71975;SDS011;68326;52.124;5.424;2024-01-25T03:30:26;7.20;;;1.38;;
71975;SDS011;68326;52.124;5.424;2024-01-25T03:32:52;13.75;;;1.23;;
71975;SDS011;68326;52.124;5.424;2024-01-25T03:35:19;9.95;;;0.98;;
71975;SDS011;68326;52.124;5.424;2024-01-25T03:37:46;11.20;;;1.10;;
71975;SDS011;68326;52.124;5.424;2024-01-25T03:40:12;15.85;;;1.10;;
71975;SDS011;68326;52.124;5.424;2024-01-25T03:42:39;11.93;;;1.20;;
71975;SDS011;68326;52.124;5.424;2024-01-25T03:45:05;10.65;;;1.00;;
71975;SDS011;68326;52.124;5.424;2024-01-25T03:47:33;10.10;;;0.82;;
71975;SDS011;68326;52.124;5.424;2024-01-25T03:49:59;7.13;;;0.80;;
71975;SDS011;68326;52.124;5.424;2024-01-25T03:52:26;12.88;;;1.30;;
71975;SDS011;68326;52.124;5.424;2024-01-25T03:54:56;10.30;;;1.80;;
71975;SDS011;68326;52.124;5.424;2024-01-25T03:57:23;10.45;;;1.23;;
71975;SDS011;68326;52.124;5.424;2024-01-25T03:59:49;11.15;;;1.25;;
71975;SDS011;68326;52.124;5.424;2024-01-25T04:02:16;12.20;;;0.70;;
71975;SDS011;68326;52.124;5.424;2024-01-25T04:04:43;12.02;;;1.10;;
71975;SDS011;68326;52.124;5.424;2024-01-25T04:07:10;12.45;;;1.38;;
71975;SDS011;68326;52.124;5.424;2024-01-25T04:09:36;9.38;;;1.13;;
71975;SDS011;68326;52.124;5.424;2024-01-25T04:12:03;10.23;;;0.93;;
71975;SDS011;68326;52.124;5.424;2024-01-25T04:14:30;8.83;;;0.80;;
71975;SDS011;68326;52.124;5.424;2024-01-25T04:16:57;10.52;;;1.02;;
71975;SDS011;68326;52.124;5.424;2024-01-25T04:19:23;5.82;;;0.73;;
71975;SDS011;68326;52.124;5.424;2024-01-25T04:21:50;11.57;;;1.23;;
71975;SDS011;68326;52.124;5.424;2024-01-25T04:24:17;9.25;;;0.95;;
71975;SDS011;68326;52.124;5.424;2024-01-25T04:26:43;10.63;;;1.03;;
71975;SDS011;68326;52.124;5.424;2024-01-25T04:29:10;9.48;;;1.10;;
71975;SDS011;68326;52.124;5.424;2024-01-25T04:31:42;16.95;;;1.75;;
71975;SDS011;68326;52.124;5.424;2024-01-25T04:34:10;12.15;;;1.48;;
71975;SDS011;68326;52.124;5.424;2024-01-25T04:36:38;10.75;;;1.10;;
71975;SDS011;68326;52.124;5.424;2024-01-25T04:39:05;9.00;;;0.90;;
71975;SDS011;68326;52.124;5.424;2024-01-25T04:41:31;12.52;;;1.30;;
71975;SDS011;68326;52.124;5.424;2024-01-25T04:43:58;16.67;;;1.70;;
71975;SDS011;68326;52.124;5.424;2024-01-25T04:46:24;12.30;;;1.52;;
71975;SDS011;68326;52.124;5.424;2024-01-25T04:48:52;10.43;;;1.17;;
71975;SDS011;68326;52.124;5.424;2024-01-25T04:51:19;9.87;;;0.90;;
71975;SDS011;68326;52.124;5.424;2024-01-25T04:53:46;11.82;;;0.82;;
71975;SDS011;68326;52.124;5.424;2024-01-25T04:56:13;13.02;;;1.73;;
71975;SDS011;68326;52.124;5.424;2024-01-25T04:58:40;13.40;;;1.10;;
71975;SDS011;68326;52.124;5.424;2024-01-25T05:01:06;12.32;;;1.33;;
71975;SDS011;68326;52.124;5.424;2024-01-25T05:03:33;7.67;;;0.73;;
71975;SDS011;68326;52.124;5.424;2024-01-25T05:06:00;9.68;;;1.10;;
71975;SDS011;68326;52.124;5.424;2024-01-25T05:08:26;14.70;;;1.40;;
71975;SDS011;68326;52.124;5.424;2024-01-25T05:10:53;9.60;;;0.98;;
71975;SDS011;68326;52.124;5.424;2024-01-25T05:13:20;10.88;;;1.02;;
71975;SDS011;68326;52.124;5.424;2024-01-25T05:15:46;17.30;;;1.90;;
71975;SDS011;68326;52.124;5.424;2024-01-25T05:18:13;8.45;;;0.82;;
71975;SDS011;68326;52.124;5.424;2024-01-25T05:20:39;15.52;;;1.23;;
71975;SDS011;68326;52.124;5.424;2024-01-25T05:23:06;9.52;;;0.95;;
71975;SDS011;68326;52.124;5.424;2024-01-25T05:25:33;19.23;;;1.75;;
71975;SDS011;68326;52.124;5.424;2024-01-25T05:27:59;22.03;;;1.20;;
71975;SDS011;68326;52.124;5.424;2024-01-25T05:30:26;9.90;;;1.30;;
71975;SDS011;68326;52.124;5.424;2024-01-25T05:32:54;14.63;;;1.83;;
71975;SDS011;68326;52.124;5.424;2024-01-25T05:35:21;11.48;;;1.70;;
71975;SDS011;68326;52.124;5.424;2024-01-25T05:37:50;15.05;;;2.97;;
71975;SDS011;68326;52.124;5.424;2024-01-25T05:40:17;15.10;;;1.47;;
71975;SDS011;68326;52.124;5.424;2024-01-25T05:42:44;13.00;;;1.40;;
71975;SDS011;68326;52.124;5.424;2024-01-25T05:45:11;12.77;;;1.00;;
71975;SDS011;68326;52.124;5.424;2024-01-25T05:47:37;12.05;;;1.00;;
71975;SDS011;68326;52.124;5.424;2024-01-25T05:50:04;14.25;;;1.38;;
71975;SDS011;68326;52.124;5.424;2024-01-25T05:52:31;11.33;;;1.20;;
71975;SDS011;68326;52.124;5.424;2024-01-25T05:54:58;12.98;;;1.33;;
71975;SDS011;68326;52.124;5.424;2024-01-25T05:57:30;12.00;;;1.10;;
71975;SDS011;68326;52.124;5.424;2024-01-25T05:59:57;14.13;;;0.80;;
71975;SDS011;68326;52.124;5.424;2024-01-25T06:02:23;15.98;;;1.27;;
71975;SDS011;68326;52.124;5.424;2024-01-25T06:04:50;17.10;;;1.77;;
71975;SDS011;68326;52.124;5.424;2024-01-25T06:07:17;13.25;;;1.85;;
71975;SDS011;68326;52.124;5.424;2024-01-25T06:09:44;12.40;;;1.60;;
71975;SDS011;68326;52.124;5.424;2024-01-25T06:12:10;12.27;;;1.52;;
71975;SDS011;68326;52.124;5.424;2024-01-25T06:14:37;10.60;;;1.30;;
71975;SDS011;68326;52.124;5.424;2024-01-25T06:17:04;9.67;;;1.37;;
71975;SDS011;68326;52.124;5.424;2024-01-25T06:19:30;19.70;;;1.92;;
71975;SDS011;68326;52.124;5.424;2024-01-25T06:21:57;10.88;;;1.30;;
71975;SDS011;68326;52.124;5.424;2024-01-25T06:24:23;8.35;;;1.05;;
71975;SDS011;68326;52.124;5.424;2024-01-25T06:26:50;13.05;;;1.63;;
71975;SDS011;68326;52.124;5.424;2024-01-25T06:29:17;18.53;;;1.67;;
71975;SDS011;68326;52.124;5.424;2024-01-25T06:31:44;9.20;;;1.42;;
71975;SDS011;68326;52.124;5.424;2024-01-25T06:34:10;7.18;;;0.90;;
71975;SDS011;68326;52.124;5.424;2024-01-25T06:36:38;16.00;;;1.25;;
71975;SDS011;68326;52.124;5.424;2024-01-25T06:39:04;12.95;;;1.35;;
71975;SDS011;68326;52.124;5.424;2024-01-25T06:41:32;16.73;;;1.33;;
71975;SDS011;68326;52.124;5.424;2024-01-25T06:43:59;7.68;;;1.25;;
71975;SDS011;68326;52.124;5.424;2024-01-25T06:46:25;11.15;;;1.27;;
71975;SDS011;68326;52.124;5.424;2024-01-25T06:48:52;11.60;;;0.85;;
71975;SDS011;68326;52.124;5.424;2024-01-25T06:51:19;13.95;;;1.30;;
71975;SDS011;68326;52.124;5.424;2024-01-25T06:53:45;11.27;;;1.00;;
71975;SDS011;68326;52.124;5.424;2024-01-25T06:56:13;12.07;;;1.52;;
71975;SDS011;68326;52.124;5.424;2024-01-25T06:58:39;15.38;;;1.10;;
71975;SDS011;68326;52.124;5.424;2024-01-25T07:01:06;11.20;;;1.50;;
71975;SDS011;68326;52.124;5.424;2024-01-25T07:03:33;12.88;;;1.17;;
71975;SDS011;68326;52.124;5.424;2024-01-25T07:06:00;10.13;;;1.10;;
71975;SDS011;68326;52.124;5.424;2024-01-25T07:08:27;10.02;;;1.45;;
71975;SDS011;68326;52.124;5.424;2024-01-25T07:10:53;11.77;;;1.27;;
71975;SDS011;68326;52.124;5.424;2024-01-25T07:13:22;15.00;;;1.73;;
71975;SDS011;68326;52.124;5.424;2024-01-25T07:15:49;11.05;;;2.08;;
71975;SDS011;68326;52.124;5.424;2024-01-25T07:18:15;11.70;;;1.53;;
71975;SDS011;68326;52.124;5.424;2024-01-25T07:20:42;19.63;;;2.22;;
71975;SDS011;68326;52.124;5.424;2024-01-25T07:23:09;7.22;;;1.73;;
71975;SDS011;68326;52.124;5.424;2024-01-25T07:25:35;8.35;;;1.80;;
71975;SDS011;68326;52.124;5.424;2024-01-25T07:28:02;8.85;;;1.67;;
71975;SDS011;68326;52.124;5.424;2024-01-25T07:30:28;12.87;;;2.03;;
71975;SDS011;68326;52.124;5.424;2024-01-25T07:32:55;15.18;;;2.58;;
71975;SDS011;68326;52.124;5.424;2024-01-25T07:35:22;12.50;;;2.20;;
71975;SDS011;68326;52.124;5.424;2024-01-25T07:37:50;19.33;;;2.30;;
71975;SDS011;68326;52.124;5.424;2024-01-25T07:40:16;12.73;;;2.45;;
71975;SDS011;68326;52.124;5.424;2024-01-25T07:42:43;8.87;;;1.77;;
71975;SDS011;68326;52.124;5.424;2024-01-25T07:45:10;16.75;;;1.83;;
71975;SDS011;68326;52.124;5.424;2024-01-25T07:47:42;10.20;;;1.63;;
71975;SDS011;68326;52.124;5.424;2024-01-25T07:50:10;10.52;;;1.70;;
71975;SDS011;68326;52.124;5.424;2024-01-25T07:52:37;7.47;;;1.63;;
71975;SDS011;68326;52.124;5.424;2024-01-25T07:55:03;13.10;;;2.33;;
71975;SDS011;68326;52.124;5.424;2024-01-25T07:57:32;9.80;;;2.05;;
71975;SDS011;68326;52.124;5.424;2024-01-25T07:59:58;12.52;;;2.95;;
71975;SDS011;68326;52.124;5.424;2024-01-25T08:02:25;15.52;;;2.60;;
71975;SDS011;68326;52.124;5.424;2024-01-25T08:04:52;14.57;;;2.80;;
71975;SDS011;68326;52.124;5.424;2024-01-25T08:07:19;20.57;;;3.40;;
71975;SDS011;68326;52.124;5.424;2024-01-25T08:09:46;22.15;;;3.97;;
71975;SDS011;68326;52.124;5.424;2024-01-25T08:12:13;17.80;;;3.55;;
71975;SDS011;68326;52.124;5.424;2024-01-25T08:14:40;17.52;;;3.60;;
71975;SDS011;68326;52.124;5.424;2024-01-25T08:17:06;15.98;;;3.63;;
71975;SDS011;68326;52.124;5.424;2024-01-25T08:19:33;17.43;;;3.90;;
71975;SDS011;68326;52.124;5.424;2024-01-25T08:22:00;13.10;;;3.40;;
71975;SDS011;68326;52.124;5.424;2024-01-25T08:24:26;13.15;;;3.53;;
71975;SDS011;68326;52.124;5.424;2024-01-25T08:26:53;17.55;;;3.47;;
71975;SDS011;68326;52.124;5.424;2024-01-25T08:29:20;17.95;;;3.20;;
71975;SDS011;68326;52.124;5.424;2024-01-25T08:31:47;16.80;;;2.93;;
71975;SDS011;68326;52.124;5.424;2024-01-25T08:34:14;15.95;;;3.20;;
71975;SDS011;68326;52.124;5.424;2024-01-25T08:36:41;13.27;;;3.22;;
71975;SDS011;68326;52.124;5.424;2024-01-25T08:39:07;13.60;;;3.17;;
71975;SDS011;68326;52.124;5.424;2024-01-25T08:41:35;21.70;;;3.10;;
71975;SDS011;68326;52.124;5.424;2024-01-25T08:44:03;11.67;;;3.00;;
71975;SDS011;68326;52.124;5.424;2024-01-25T08:46:30;13.45;;;2.50;;
71975;SDS011;68326;52.124;5.424;2024-01-25T08:48:57;11.48;;;2.25;;
71975;SDS011;68326;52.124;5.424;2024-01-25T08:51:23;15.75;;;2.60;;
71975;SDS011;68326;52.124;5.424;2024-01-25T08:53:50;13.68;;;2.05;;
71975;SDS011;68326;52.124;5.424;2024-01-25T08:56:17;20.20;;;2.50;;
71975;SDS011;68326;52.124;5.424;2024-01-25T08:58:44;14.10;;;2.22;;
71975;SDS011;68326;52.124;5.424;2024-01-25T09:01:17;13.02;;;1.85;;
71975;SDS011;68326;52.124;5.424;2024-01-25T09:03:44;19.40;;;2.58;;
71975;SDS011;68326;52.124;5.424;2024-01-25T09:06:11;18.52;;;2.10;;
71975;SDS011;68326;52.124;5.424;2024-01-25T09:08:37;15.63;;;2.80;;
71975;SDS011;68326;52.124;5.424;2024-01-25T09:11:04;14.23;;;2.28;;
71975;SDS011;68326;52.124;5.424;2024-01-25T09:13:31;14.63;;;2.25;;
71975;SDS011;68326;52.124;5.424;2024-01-25T09:16:09;10.63;;;1.58;;
71975;SDS011;68326;52.124;5.424;2024-01-25T09:18:36;14.50;;;2.28;;
71975;SDS011;68326;52.124;5.424;2024-01-25T09:21:03;14.37;;;1.87;;
71975;SDS011;68326;52.124;5.424;2024-01-25T09:23:29;14.52;;;2.20;;
71975;SDS011;68326;52.124;5.424;2024-01-25T09:25:56;23.08;;;2.97;;
71975;SDS011;68326;52.124;5.424;2024-01-25T09:28:23;18.63;;;1.85;;
71975;SDS011;68326;52.124;5.424;2024-01-25T09:30:49;16.25;;;1.70;;
71975;SDS011;68326;52.124;5.424;2024-01-25T09:33:17;17.77;;;2.03;;
71975;SDS011;68326;52.124;5.424;2024-01-25T09:35:44;16.23;;;1.92;;
71975;SDS011;68326;52.124;5.424;2024-01-25T09:38:14;15.00;;;1.85;;
71975;SDS011;68326;52.124;5.424;2024-01-25T09:40:41;10.88;;;2.40;;
71975;SDS011;68326;52.124;5.424;2024-01-25T09:43:08;10.48;;;1.70;;
71975;SDS011;68326;52.124;5.424;2024-01-25T09:45:35;13.30;;;1.53;;
71975;SDS011;68326;52.124;5.424;2024-01-25T09:48:02;16.80;;;2.20;;
71975;SDS011;68326;52.124;5.424;2024-01-25T09:50:31;14.90;;;2.55;;
71975;SDS011;68326;52.124;5.424;2024-01-25T09:53:00;12.77;;;1.90;;
71975;SDS011;68326;52.124;5.424;2024-01-25T09:55:27;18.20;;;2.22;;
71975;SDS011;68326;52.124;5.424;2024-01-25T09:57:54;19.20;;;2.40;;
71975;SDS011;68326;52.124;5.424;2024-01-25T10:00:24;17.42;;;2.58;;
71975;SDS011;68326;52.124;5.424;2024-01-25T10:02:51;19.67;;;2.05;;
71975;SDS011;68326;52.124;5.424;2024-01-25T10:05:17;13.02;;;2.40;;
71975;SDS011;68326;52.124;5.424;2024-01-25T10:07:45;16.00;;;2.35;;
71975;SDS011;68326;52.124;5.424;2024-01-25T10:10:12;12.43;;;1.93;;
71975;SDS011;68326;52.124;5.424;2024-01-25T10:12:40;13.85;;;2.00;;
71975;SDS011;68326;52.124;5.424;2024-01-25T10:15:09;15.75;;;2.60;;
71975;SDS011;68326;52.124;5.424;2024-01-25T10:17:36;15.15;;;2.53;;
71975;SDS011;68326;52.124;5.424;2024-01-25T10:20:23;14.38;;;2.50;;
71975;SDS011;68326;52.124;5.424;2024-01-25T10:22:52;13.50;;;1.90;;
71975;SDS011;68326;52.124;5.424;2024-01-25T10:25:23;16.88;;;2.25;;
71975;SDS011;68326;52.124;5.424;2024-01-25T10:27:49;16.27;;;2.58;;
71975;SDS011;68326;52.124;5.424;2024-01-25T10:30:16;21.25;;;2.38;;
71975;SDS011;68326;52.124;5.424;2024-01-25T10:32:44;20.02;;;2.65;;
71975;SDS011;68326;52.124;5.424;2024-01-25T10:35:13;16.40;;;2.37;;
71975;SDS011;68326;52.124;5.424;2024-01-25T10:37:43;16.38;;;2.30;;
71975;SDS011;68326;52.124;5.424;2024-01-25T10:40:11;14.60;;;2.45;;
71975;SDS011;68326;52.124;5.424;2024-01-25T10:42:38;16.60;;;2.55;;
71975;SDS011;68326;52.124;5.424;2024-01-25T10:45:05;20.95;;;2.65;;
71975;SDS011;68326;52.124;5.424;2024-01-25T10:47:33;14.47;;;2.43;;
71975;SDS011;68326;52.124;5.424;2024-01-25T10:50:02;14.20;;;2.05;;
71975;SDS011;68326;52.124;5.424;2024-01-25T10:52:29;19.35;;;2.65;;
71975;SDS011;68326;52.124;5.424;2024-01-25T10:54:58;19.75;;;2.83;;
71975;SDS011;68326;52.124;5.424;2024-01-25T10:57:25;19.95;;;2.67;;
71975;SDS011;68326;52.124;5.424;2024-01-25T10:59:51;14.90;;;2.97;;
71975;SDS011;68326;52.124;5.424;2024-01-25T11:02:18;14.18;;;3.30;;
71975;SDS011;68326;52.124;5.424;2024-01-25T11:04:54;12.48;;;3.00;;
71975;SDS011;68326;52.124;5.424;2024-01-25T11:07:21;10.88;;;2.10;;
71975;SDS011;68326;52.124;5.424;2024-01-25T11:09:50;19.08;;;2.30;;
71975;SDS011;68326;52.124;5.424;2024-01-25T11:12:18;10.50;;;2.37;;
71975;SDS011;68326;52.124;5.424;2024-01-25T11:14:45;17.00;;;2.30;;
71975;SDS011;68326;52.124;5.424;2024-01-25T11:17:20;18.08;;;2.67;;
71975;SDS011;68326;52.124;5.424;2024-01-25T11:19:48;18.52;;;2.90;;
71975;SDS011;68326;52.124;5.424;2024-01-25T11:22:16;16.45;;;2.50;;
71975;SDS011;68326;52.124;5.424;2024-01-25T11:24:43;12.43;;;2.20;;
71975;SDS011;68326;52.124;5.424;2024-01-25T11:27:11;14.98;;;2.47;;
71975;SDS011;68326;52.124;5.424;2024-01-25T11:29:38;17.90;;;2.53;;
71975;SDS011;68326;52.124;5.424;2024-01-25T11:32:09;19.83;;;2.67;;
71975;SDS011;68326;52.124;5.424;2024-01-25T11:34:36;18.38;;;2.55;;
71975;SDS011;68326;52.124;5.424;2024-01-25T11:37:02;12.00;;;2.60;;
71975;SDS011;68326;52.124;5.424;2024-01-25T11:39:29;10.60;;;2.25;;
71975;SDS011;68326;52.124;5.424;2024-01-25T11:41:56;17.35;;;3.10;;
71975;SDS011;68326;52.124;5.424;2024-01-25T11:44:22;17.88;;;2.88;;
71975;SDS011;68326;52.124;5.424;2024-01-25T11:46:50;27.40;;;3.78;;
71975;SDS011;68326;52.124;5.424;2024-01-25T11:49:22;17.10;;;2.60;;
71975;SDS011;68326;52.124;5.424;2024-01-25T11:51:50;18.20;;;2.97;;
71975;SDS011;68326;52.124;5.424;2024-01-25T11:54:17;15.93;;;2.72;;
71975;SDS011;68326;52.124;5.424;2024-01-25T11:56:44;20.45;;;3.03;;
71975;SDS011;68326;52.124;5.424;2024-01-25T11:59:11;16.02;;;3.17;;
71975;SDS011;68326;52.124;5.424;2024-01-25T12:01:38;18.43;;;3.47;;
71975;SDS011;68326;52.124;5.424;2024-01-25T12:04:07;20.45;;;3.05;;
71975;SDS011;68326;52.124;5.424;2024-01-25T12:06:35;19.60;;;3.13;;
71975;SDS011;68326;52.124;5.424;2024-01-25T12:09:06;18.58;;;2.97;;
71975;SDS011;68326;52.124;5.424;2024-01-25T12:11:38;12.90;;;3.33;;
71975;SDS011;68326;52.124;5.424;2024-01-25T12:14:07;18.23;;;3.23;;
71975;SDS011;68326;52.124;5.424;2024-01-25T12:16:35;14.00;;;2.97;;
71975;SDS011;68326;52.124;5.424;2024-01-25T12:19:04;20.80;;;3.85;;
71975;SDS011;68326;52.124;5.424;2024-01-25T12:21:35;14.77;;;3.05;;
71975;SDS011;68326;52.124;5.424;2024-01-25T12:24:03;19.02;;;3.80;;
71975;SDS011;68326;52.124;5.424;2024-01-25T12:26:35;19.13;;;3.80;;
71975;SDS011;68326;52.124;5.424;2024-01-25T12:29:02;21.17;;;3.40;;
71975;SDS011;68326;52.124;5.424;2024-01-25T12:31:29;18.92;;;3.42;;
71975;SDS011;68326;52.124;5.424;2024-01-25T12:33:56;18.40;;;3.83;;
71975;SDS011;68326;52.124;5.424;2024-01-25T12:36:24;14.32;;;3.42;;
71975;SDS011;68326;52.124;5.424;2024-01-25T12:38:50;17.00;;;3.43;;
71975;SDS011;68326;52.124;5.424;2024-01-25T12:41:17;16.88;;;3.78;;
71975;SDS011;68326;52.124;5.424;2024-01-25T12:43:44;17.17;;;3.38;;
71975;SDS011;68326;52.124;5.424;2024-01-25T12:46:10;18.52;;;3.13;;
71975;SDS011;68326;52.124;5.424;2024-01-25T12:48:52;24.13;;;4.53;;
71975;SDS011;68326;52.124;5.424;2024-01-25T12:51:22;16.57;;;3.10;;
71975;SDS011;68326;52.124;5.424;2024-01-25T12:53:49;20.50;;;4.18;;
71975;SDS011;68326;52.124;5.424;2024-01-25T12:56:16;16.52;;;3.67;;
71975;SDS011;68326;52.124;5.424;2024-01-25T12:58:42;20.52;;;4.50;;
71975;SDS011;68326;52.124;5.424;2024-01-25T13:01:10;18.92;;;3.95;;
71975;SDS011;68326;52.124;5.424;2024-01-25T13:03:37;19.47;;;3.43;;
71975;SDS011;68326;52.124;5.424;2024-01-25T13:06:05;16.95;;;3.38;;
71975;SDS011;68326;52.124;5.424;2024-01-25T13:08:32;19.75;;;3.65;;
71975;SDS011;68326;52.124;5.424;2024-01-25T13:10:58;14.25;;;3.42;;
71975;SDS011;68326;52.124;5.424;2024-01-25T13:13:25;20.67;;;4.32;;
71975;SDS011;68326;52.124;5.424;2024-01-25T13:15:51;12.60;;;3.23;;
71975;SDS011;68326;52.124;5.424;2024-01-25T13:18:18;13.73;;;4.20;;
71975;SDS011;68326;52.124;5.424;2024-01-25T13:20:45;17.92;;;3.65;;
71975;SDS011;68326;52.124;5.424;2024-01-25T13:23:12;18.45;;;3.42;;
71975;SDS011;68326;52.124;5.424;2024-01-25T13:25:38;22.20;;;4.20;;
71975;SDS011;68326;52.124;5.424;2024-01-25T13:28:05;22.93;;;4.03;;
71975;SDS011;68326;52.124;5.424;2024-01-25T13:30:31;18.73;;;3.55;;
71975;SDS011;68326;52.124;5.424;2024-01-25T13:32:58;21.50;;;3.65;;
71975;SDS011;68326;52.124;5.424;2024-01-25T13:35:25;20.05;;;3.67;;
71975;SDS011;68326;52.124;5.424;2024-01-25T13:37:52;19.55;;;3.95;;
71975;SDS011;68326;52.124;5.424;2024-01-25T13:40:18;24.47;;;4.00;;
71975;SDS011;68326;52.124;5.424;2024-01-25T13:42:46;16.13;;;4.10;;
71975;SDS011;68326;52.124;5.424;2024-01-25T13:45:13;18.50;;;3.53;;
71975;SDS011;68326;52.124;5.424;2024-01-25T13:47:40;16.67;;;4.28;;
71975;SDS011;68326;52.124;5.424;2024-01-25T13:50:06;22.40;;;4.47;;
71975;SDS011;68326;52.124;5.424;2024-01-25T13:52:33;27.10;;;4.17;;
71975;SDS011;68326;52.124;5.424;2024-01-25T13:54:59;19.70;;;4.40;;
71975;SDS011;68326;52.124;5.424;2024-01-25T13:57:26;22.02;;;5.40;;
71975;SDS011;68326;52.124;5.424;2024-01-25T13:59:52;16.50;;;3.92;;
71975;SDS011;68326;52.124;5.424;2024-01-25T14:02:19;18.60;;;4.10;;
71975;SDS011;68326;52.124;5.424;2024-01-25T14:04:45;24.07;;;4.50;;
71975;SDS011;68326;52.124;5.424;2024-01-25T14:07:16;22.95;;;4.40;;
71975;SDS011;68326;52.124;5.424;2024-01-25T14:09:46;20.67;;;5.20;;
71975;SDS011;68326;52.124;5.424;2024-01-25T14:12:15;25.40;;;5.90;;
71975;SDS011;68326;52.124;5.424;2024-01-25T14:14:42;18.85;;;4.55;;
71975;SDS011;68326;52.124;5.424;2024-01-25T14:17:09;21.33;;;4.33;;
71975;SDS011;68326;52.124;5.424;2024-01-25T14:19:35;17.63;;;3.85;;
71975;SDS011;68326;52.124;5.424;2024-01-25T14:22:02;20.17;;;4.30;;
71975;SDS011;68326;52.124;5.424;2024-01-25T14:24:49;20.15;;;3.75;;
71975;SDS011;68326;52.124;5.424;2024-01-25T14:27:16;16.30;;;4.65;;
71975;SDS011;68326;52.124;5.424;2024-01-25T14:29:43;21.60;;;5.03;;
71975;SDS011;68326;52.124;5.424;2024-01-25T14:32:09;22.50;;;4.78;;
71975;SDS011;68326;52.124;5.424;2024-01-25T14:34:36;23.70;;;5.00;;
71975;SDS011;68326;52.124;5.424;2024-01-25T14:37:03;15.50;;;4.90;;